Time;durP1;ratioP1;P1;durP2;ratioP2;P2;SDS_P1;SDS_P2;PMS_P1;PMS_P2;Temp;Humidity;BMP_temperature;BMP_pressure;BME280_temperature;BME280_humidity;BME280_pressure;Samples;Min_cycle;Max_cycle;Signal;HPM_P1;HPM_P2
2023/10/27 00:00:43;;;;;;;34.20;25.63;;;;;;;9.97;100.00;99033.94;5283327;28;20434;-82
2023/10/27 00:03:14;;;;;;;31.77;24.03;;;;;;;9.96;100.00;99034.81;5283154;28;20039;-82
2023/10/27 00:05:46;;;;;;;32.23;24.63;;;;;;;9.97;100.00;99028.72;5283195;28;20376;-82
2023/10/27 00:08:17;;;;;;;33.27;24.63;;;;;;;9.95;100.00;99030.53;5283101;28;20032;-82
2023/10/27 00:10:48;;;;;;;37.00;27.17;;;;;;;9.93;100.00;99030.56;5282109;28;20094;-82
2023/10/27 00:13:20;;;;;;;35.53;24.90;;;;;;;9.92;100.00;99025.44;5282840;28;20040;-82
2023/10/27 00:15:52;;;;;;;36.43;26.60;;;;;;;9.91;100.00;99026.34;5281410;28;20075;-82
2023/10/27 00:18:23;;;;;;;35.83;26.10;;;;;;;9.92;100.00;99028.03;5283318;28;20028;-82
2023/10/27 00:20:54;;;;;;;43.40;26.10;;;;;;;9.91;100.00;99028.97;5285534;28;20036;-82
2023/10/27 00:23:26;;;;;;;34.20;25.47;;;;;;;9.91;100.00;99026.34;5287115;28;20090;-81
2023/10/27 00:25:57;;;;;;;36.87;27.40;;;;;;;9.91;100.00;99021.16;5285634;28;20357;-82
2023/10/27 00:28:29;;;;;;;36.03;26.17;;;;;;;9.92;100.00;99012.41;5286868;28;20495;-82
2023/10/27 00:31:01;;;;;;;38.60;26.17;;;;;;;9.93;100.00;99021.94;5285884;28;20036;-82
2023/10/27 00:33:34;;;;;;;41.57;27.27;;;;;;;9.93;100.00;99019.31;5287275;28;20040;-82
2023/10/27 00:36:05;;;;;;;32.80;26.75;;;;;;;9.92;100.00;99007.22;5285612;28;20384;-80
2023/10/27 00:38:37;;;;;;;41.37;27.47;;;;;;;9.89;100.00;99008.19;5286687;28;20029;-82
2023/10/27 00:41:08;;;;;;;42.10;27.83;;;;;;;9.90;100.00;99009.03;5285456;28;20177;-81
2023/10/27 00:43:39;;;;;;;39.77;26.50;;;;;;;9.89;100.00;99000.38;5286289;28;20033;-82
2023/10/27 00:46:11;;;;;;;37.40;29.07;;;;;;;9.88;100.00;99000.44;5286664;28;20032;-81
2023/10/27 00:48:43;;;;;;;35.65;26.60;;;;;;;9.89;100.00;99002.16;5285386;28;20032;-82
2023/10/27 00:51:15;;;;;;;36.90;27.45;;;;;;;9.88;100.00;99005.66;5285413;28;20079;-83
2023/10/27 00:53:47;;;;;;;38.90;26.73;;;;;;;9.89;100.00;99002.16;5286155;28;20456;-82
2023/10/27 00:56:19;;;;;;;39.38;27.13;;;;;;;9.89;100.00;99003.00;5286263;28;20043;-81
2023/10/27 00:58:50;;;;;;;40.27;27.00;;;;;;;9.91;100.00;99008.13;5286054;28;20363;-81
2023/10/27 01:01:22;;;;;;;42.23;27.33;;;;;;;9.88;100.00;99003.88;5286338;28;20324;-81
2023/10/27 01:03:55;;;;;;;43.33;27.33;;;;;;;9.89;100.00;99000.38;5286080;28;20129;-82
2023/10/27 01:06:27;;;;;;;30.90;23.67;;;;;;;9.93;100.00;98995.91;5286369;28;20033;-81
2023/10/27 01:08:58;;;;;;;41.70;26.70;;;;;;;9.91;100.00;99001.16;5284697;28;20039;-81
2023/10/27 01:11:29;;;;;;;34.30;24.97;;;;;;;9.94;100.00;98995.84;5285851;28;20035;-81
2023/10/27 01:14:01;;;;;;;43.07;25.83;;;;;;;9.95;100.00;98996.69;5286752;28;20067;-80
2023/10/27 01:16:32;;;;;;;40.73;25.67;;;;;;;9.95;100.00;98992.34;5287109;28;20064;-82
2023/10/27 01:19:04;;;;;;;41.17;25.63;;;;;;;9.95;100.00;98994.94;5287778;28;20097;-80
2023/10/27 01:21:35;;;;;;;41.47;26.67;;;;;;;9.92;100.00;98989.00;5288578;28;20044;-82
2023/10/27 01:24:07;;;;;;;37.37;25.90;;;;;;;9.96;100.00;98993.19;5287381;28;20025;-82
2023/10/27 01:26:39;;;;;;;38.83;24.77;;;;;;;9.95;100.00;98994.94;5288307;28;20524;-80
2023/10/27 01:29:10;;;;;;;40.23;24.10;;;;;;;9.96;100.00;98994.03;5286970;28;20044;-82
2023/10/27 01:31:41;;;;;;;33.00;24.17;;;;;;;9.94;100.00;98990.63;5285164;28;20111;-82
2023/10/27 01:34:13;;;;;;;34.93;22.83;;;;;;;9.94;100.00;98993.25;5286495;28;20035;-82
2023/10/27 01:36:44;;;;;;;35.20;23.77;;;;;;;9.95;100.00;98988.88;5285556;28;20029;-83
2023/10/27 01:39:16;;;;;;;31.87;23.70;;;;;;;9.94;100.00;98990.63;5284215;28;20476;-82
2023/10/27 01:41:47;;;;;;;39.47;23.47;;;;;;;9.94;100.00;98982.84;5283693;28;20392;-82
2023/10/27 01:44:19;;;;;;;32.33;22.13;;;;;;;9.93;100.00;98988.94;5283844;28;20115;-81
2023/10/27 01:46:50;;;;;;;33.20;22.20;;;;;;;9.94;100.00;98989.81;5284118;28;20044;-82
2023/10/27 01:49:21;;;;;;;31.17;20.63;;;;;;;9.94;100.00;98987.19;5285296;28;20464;-82
2023/10/27 01:51:53;;;;;;;33.47;21.17;;;;;;;9.93;100.00;98988.09;5284135;28;20056;-82
2023/10/27 01:54:24;;;;;;;31.73;21.97;;;;;;;9.94;100.00;98979.38;5285482;28;20117;-79
2023/10/27 01:56:56;;;;;;;28.47;19.97;;;;;;;9.92;100.00;98975.97;5285240;28;20507;-80
2023/10/27 01:59:29;;;;;;;31.27;20.40;;;;;;;9.92;100.00;98978.59;5285364;28;20115;-81
2023/10/27 02:02:00;;;;;;;32.25;19.55;;;;;;;9.91;100.00;98976.91;5284822;28;20151;-80
2023/10/27 02:04:35;;;;;;;37.57;20.53;;;;;;;9.89;100.00;98973.53;5275742;28;20525;-80
2023/10/27 02:07:07;;;;;;;26.63;20.35;;;;;;;9.90;100.00;98968.25;5284497;28;20036;-81
2023/10/27 02:09:39;;;;;;;34.63;20.17;;;;;;;9.92;100.00;98975.97;5284247;28;20032;-81
2023/10/27 02:12:10;;;;;;;31.00;19.95;;;;;;;9.91;100.00;98967.34;5283022;28;20066;-80
2023/10/27 02:14:42;;;;;;;29.40;19.40;;;;;;;9.90;100.00;98973.47;5284539;28;20032;-81
2023/10/27 02:17:13;;;;;;;26.87;18.37;;;;;;;9.89;100.00;98969.16;5284893;28;20064;-83
2023/10/27 02:19:45;;;;;;;31.30;19.47;;;;;;;9.88;100.00;98964.00;5285290;28;20036;-82
2023/10/27 02:22:19;;;;;;;34.70;20.20;;;;;;;9.88;100.00;98962.25;5298987;28;20092;-80
2023/10/27 02:24:51;;;;;;;30.13;18.25;;;;;;;9.84;100.00;98961.53;5302324;28;20109;-80
2023/10/27 02:27:22;;;;;;;25.53;17.37;;;;;;;9.86;100.00;98954.50;5294722;28;20032;-80
2023/10/27 02:29:54;;;;;;;26.17;16.40;;;;;;;9.85;100.00;98954.56;5284968;28;20541;-81
2023/10/27 02:32:25;;;;;;;27.03;16.63;;;;;;;9.83;100.00;98957.22;5283814;28;20069;-80
2023/10/27 02:34:56;;;;;;;26.40;16.03;;;;;;;9.86;100.00;98954.50;5284899;28;20468;-80
2023/10/27 02:37:28;;;;;;;20.97;15.40;;;;;;;9.80;100.00;98951.28;5283404;28;20519;-81
2023/10/27 02:39:59;;;;;;;29.03;16.03;;;;;;;9.80;100.00;98952.13;5284394;28;20035;-81
2023/10/27 02:42:30;;;;;;;29.90;14.97;;;;;;;9.82;100.00;98952.94;5283158;28;20378;-81
2023/10/27 02:45:02;;;;;;;21.87;15.00;;;;;;;9.77;100.00;98947.06;5284351;28;20036;-81
2023/10/27 02:47:33;;;;;;;30.70;15.83;;;;;;;9.79;100.00;98944.41;5284401;28;20439;-80
2023/10/27 02:50:05;;;;;;;26.67;12.73;;;;;;;9.75;100.00;98943.66;5284266;28;20172;-80
2023/10/27 02:52:36;;;;;;;23.30;12.90;;;;;;;9.77;100.00;98941.88;5284181;28;20472;-80
2023/10/27 02:55:08;;;;;;;26.47;13.30;;;;;;;9.72;100.00;98942.94;5283983;28;20028;-81
2023/10/27 02:57:39;;;;;;;30.83;13.93;;;;;;;9.74;100.00;98943.72;5283967;28;20036;-81
2023/10/27 03:00:11;;;;;;;23.83;12.70;;;;;;;9.73;100.00;98936.84;5283837;28;20384;-81
2023/10/27 03:02:42;;;;;;;24.87;13.30;;;;;;;9.74;100.00;98936.78;5283804;28;20491;-80
2023/10/27 03:05:14;;;;;;;24.63;12.80;;;;;;;9.70;100.00;98934.34;5282361;28;20511;-80
2023/10/27 03:07:45;;;;;;;21.13;12.13;;;;;;;9.68;100.00;98937.00;5282569;28;20061;-83
2023/10/27 03:10:16;;;;;;;23.83;12.70;;;;;;;9.70;100.00;98937.78;5265693;28;20021;-82
2023/10/27 03:12:48;;;;;;;22.93;12.33;;;;;;;9.65;100.00;98934.53;5282282;28;20044;-82
2023/10/27 03:15:19;;;;;;;31.70;12.57;;;;;;;9.66;100.00;98929.25;5283310;28;20103;-81
2023/10/27 03:17:50;;;;;;;23.60;10.90;;;;;;;9.65;100.00;98927.56;5283470;28;20029;-81
2023/10/27 03:20:22;;;;;;;21.00;10.60;;;;;;;9.65;100.00;98931.94;5284021;28;20166;-79
2023/10/27 03:22:53;;;;;;;22.83;13.23;;;;;;;9.68;100.00;98924.84;5283493;28;20480;-81
2023/10/27 03:25:25;;;;;;;26.73;11.60;;;;;;;9.70;100.00;98930.00;5282184;28;20368;-81
2023/10/27 03:27:56;;;;;;;25.70;11.50;;;;;;;9.64;100.00;98931.09;5283416;28;20028;-82
2023/10/27 03:30:28;;;;;;;27.63;11.63;;;;;;;9.69;100.00;98928.28;5282281;28;20074;-81
2023/10/27 03:32:59;;;;;;;18.90;10.83;;;;;;;9.68;100.00;98924.84;5283642;28;20043;-81
2023/10/27 03:35:31;;;;;;;20.03;9.77;;;;;;;9.70;100.00;98931.75;5283395;28;20055;-81
2023/10/27 03:38:02;;;;;;;19.97;10.80;;;;;;;9.67;100.00;98925.75;5298757;28;20028;-81
2023/10/27 03:40:33;;;;;;;19.60;10.97;;;;;;;9.66;100.00;98928.44;5283052;28;20036;-81
2023/10/27 03:43:05;;;;;;;25.20;10.60;;;;;;;9.67;100.00;98925.75;5283011;28;20031;-80
2023/10/27 03:45:37;;;;;;;22.17;11.37;;;;;;;9.67;100.00;98922.31;5283478;28;20025;-80
2023/10/27 03:48:08;;;;;;;20.57;9.67;;;;;;;9.68;100.00;98918.81;5283844;28;20029;-81
2023/10/27 03:50:40;;;;;;;22.83;10.00;;;;;;;9.62;100.00;98924.25;5284316;28;20086;-81
2023/10/27 03:53:11;;;;;;;18.93;10.83;;;;;;;9.67;100.00;98924.91;5284876;28;20087;-80
2023/10/27 03:55:42;;;;;;;21.87;10.20;;;;;;;9.60;100.00;98919.09;5287855;28;20029;-81
2023/10/27 03:58:15;;;;;;;17.50;9.83;;;;;;;9.61;100.00;98922.53;5288895;28;20116;-81
2023/10/27 04:00:47;;;;;;;20.83;9.88;;;;;;;9.60;100.00;98919.09;5288672;28;20033;-81
2023/10/27 04:03:18;;;;;;;20.53;9.40;;;;;;;9.60;100.00;98920.84;5287129;28;20043;-82
2023/10/27 04:05:49;;;;;;;18.10;9.93;;;;;;;9.59;100.00;98917.38;5269673;28;20091;-82
2023/10/27 04:08:21;;;;;;;15.83;9.00;;;;;;;9.61;100.00;98913.00;5287667;28;20460;-80
2023/10/27 04:10:53;;;;;;;18.80;9.30;;;;;;;9.59;100.00;98911.34;5286505;28;20112;-82
2023/10/27 04:13:24;;;;;;;16.80;8.80;;;;;;;9.60;100.00;98915.66;5287483;28;20479;-82
2023/10/27 04:15:55;;;;;;;21.27;9.20;;;;;;;9.57;100.00;98918.38;5287431;28;20136;-82
2023/10/27 04:18:27;;;;;;;18.17;8.70;;;;;;;9.59;100.00;98917.38;5288243;28;20074;-82
2023/10/27 04:20:58;;;;;;;20.17;10.37;;;;;;;9.57;100.00;98920.97;5289228;28;20052;-81
2023/10/27 04:23:30;;;;;;;18.43;9.70;;;;;;;9.57;100.00;98921.81;5299261;28;20099;-81
2023/10/27 04:26:02;;;;;;;22.67;10.07;;;;;;;9.54;100.00;98921.94;5299665;28;20056;-81
2023/10/27 04:28:33;;;;;;;19.17;10.30;;;;;;;9.55;100.00;98920.19;5295557;28;20028;-81
2023/10/27 04:31:05;;;;;;;17.30;9.83;;;;;;;9.59;100.00;98922.59;5290404;28;20025;-80
2023/10/27 04:33:37;;;;;;;19.63;9.97;;;;;;;9.58;100.00;98920.03;5286929;28;20051;-81
2023/10/27 04:36:08;;;;;;;20.80;9.32;;;;;;;9.59;100.00;98921.75;5286169;28;20040;-80
2023/10/27 04:38:40;;;;;;;17.70;9.50;;;;;;;9.58;100.00;98915.72;5286864;28;20039;-82
2023/10/27 04:41:11;;;;;;;18.10;9.80;;;;;;;9.62;100.00;98919.03;5285708;28;20092;-82
2023/10/27 04:43:42;;;;;;;19.83;9.40;;;;;;;9.61;100.00;98926.00;5286381;28;20098;-81
2023/10/27 04:46:14;;;;;;;17.90;10.60;;;;;;;9.59;100.00;98919.16;5286601;28;20422;-83
2023/10/27 04:48:45;;;;;;;18.87;9.20;;;;;;;9.58;100.00;98920.91;5285233;28;20032;-81
2023/10/27 04:51:17;;;;;;;21.90;10.10;;;;;;;9.55;100.00;98915.00;5286650;28;20142;-82
2023/10/27 04:53:49;;;;;;;28.90;10.82;;;;;;;9.54;100.00;98918.50;5286382;28;20345;-80
2023/10/27 04:56:20;;;;;;;23.27;9.87;;;;;;;9.55;100.00;98909.78;5286259;28;20037;-82
2023/10/27 04:58:52;;;;;;;18.03;8.90;;;;;;;9.56;100.00;98916.66;5286453;28;20025;-82
2023/10/27 05:01:25;;;;;;;17.17;9.60;;;;;;;9.55;100.00;98909.78;5287240;28;20173;-82
2023/10/27 05:03:56;;;;;;;21.50;9.50;;;;;;;9.52;100.00;98915.09;5304709;28;20036;-82
2023/10/27 05:06:30;;;;;;;28.40;9.87;;;;;;;9.53;100.00;98906.38;5304715;28;20064;-81
2023/10/27 05:09:01;;;;;;;17.42;9.57;;;;;;;9.50;100.00;98907.38;5300236;28;20113;-82
2023/10/27 05:11:32;;;;;;;21.77;10.13;;;;;;;9.52;100.00;98904.69;5286891;28;20106;-82
2023/10/27 05:14:04;;;;;;;17.40;9.87;;;;;;;9.49;100.00;98903.88;5268533;28;20369;-82
2023/10/27 05:16:35;;;;;;;22.47;9.70;;;;;;;9.50;100.00;98904.75;5286518;28;20131;-82
2023/10/27 05:19:07;;;;;;;17.53;9.57;;;;;;;9.54;100.00;98902.88;5286739;28;20087;-81
2023/10/27 05:21:38;;;;;;;14.40;9.57;;;;;;;9.54;100.00;98895.91;5286977;28;20036;-82
2023/10/27 05:24:11;;;;;;;16.43;9.60;;;;;;;9.57;100.00;98901.00;5286159;28;20028;-81
2023/10/27 05:26:42;;;;;;;21.55;10.95;;;;;;;9.52;100.00;98900.34;5284670;28;20475;-82
2023/10/27 05:29:14;;;;;;;18.23;10.63;;;;;;;9.50;100.00;98899.56;5285947;28;20115;-82
2023/10/27 05:31:46;;;;;;;19.17;10.83;;;;;;;9.49;100.00;98901.28;5285921;28;20035;-78
2023/10/27 05:34:18;;;;;;;22.25;11.30;;;;;;;9.46;100.00;98896.19;5284608;28;20119;-77
2023/10/27 05:36:49;;;;;;;21.00;11.40;;;;;;;9.42;100.00;98897.25;5285428;28;20167;-77
2023/10/27 05:39:21;;;;;;;21.77;12.53;;;;;;;9.44;100.00;98900.63;5285232;28;20506;-77
2023/10/27 05:41:52;;;;;;;19.60;11.13;;;;;;;9.48;100.00;98896.16;5285442;28;20082;-77
2023/10/27 05:44:23;;;;;;;17.13;11.93;;;;;;;9.46;100.00;98897.97;5284927;28;20059;-75
2023/10/27 05:46:55;;;;;;;19.33;11.40;;;;;;;9.43;100.00;98896.31;5285052;28;20472;-77
2023/10/27 05:49:27;;;;;;;14.47;10.50;;;;;;;9.46;100.00;98893.59;5285174;28;20040;-76
2023/10/27 05:52:02;;;;;;;14.65;10.50;;;;;;;9.55;100.00;98894.19;5284865;28;20210;-77
2023/10/27 05:54:34;;;;;;;14.63;10.38;;;;;;;9.56;100.00;98895.84;5283565;28;20024;-76
2023/10/27 05:57:08;;;;;;;20.53;11.17;;;;;;;9.49;100.00;98893.50;5283141;28;20435;-76
2023/10/27 05:59:40;;;;;;;16.55;11.75;;;;;;;9.53;100.00;98896.84;5283508;28;20021;-76
2023/10/27 06:02:11;;;;;;;22.33;10.97;;;;;;;9.48;100.00;98897.00;5283922;28;20035;-77
2023/10/27 06:04:43;;;;;;;17.07;10.67;;;;;;;9.52;100.00;98900.34;5284575;28;20040;-77
2023/10/27 06:07:15;;;;;;;12.63;9.33;;;;;;;9.58;100.00;98900.09;5283787;28;20036;-78
2023/10/27 06:09:47;;;;;;;;;;;;;;;9.63;100.00;98905.97;5284978;28;20020;-77
2023/10/27 06:12:18;;;;;;;17.25;11.07;;;;;;;9.52;100.00;98902.94;5283747;28;20313;-76
2023/10/27 06:14:50;;;;;;;13.30;10.10;;;;;;;9.53;100.00;98903.78;5282725;28;20032;-76
2023/10/27 06:17:22;;;;;;;18.55;12.40;;;;;;;9.49;100.00;98905.66;5281908;28;20127;-77
2023/10/27 06:19:53;;;;;;;13.60;10.00;;;;;;;9.53;100.00;98903.78;5284456;28;20117;-76
2023/10/27 06:22:24;;;;;;;10.50;9.17;;;;;;;9.54;100.00;98908.09;5282376;28;20037;-76
2023/10/27 06:24:56;;;;;;;19.83;10.47;;;;;;;9.48;100.00;98909.16;5283157;28;20494;-77
2023/10/27 06:27:27;;;;;;;14.90;9.90;;;;;;;9.49;100.00;98906.50;5283382;28;20031;-76
2023/10/27 06:29:59;;;;;;;15.20;13.47;;;;;;;9.50;100.00;98907.38;5282965;28;20464;-77
2023/10/27 06:32:30;;;;;;;17.63;12.07;;;;;;;9.47;100.00;98916.13;5283591;28;20115;-76
2023/10/27 06:35:03;;;;;;;16.10;11.53;;;;;;;9.54;100.00;98913.28;5282435;28;20024;-76
2023/10/27 06:37:35;;;;;;;16.98;13.20;;;;;;;9.52;100.00;98915.94;5283998;28;20044;-76
2023/10/27 06:40:07;;;;;;;22.10;19.73;;;;;;;9.56;100.00;98912.31;5283225;28;20486;-76
2023/10/27 06:42:38;;;;;;;16.13;12.68;;;;;;;9.49;100.00;98910.84;5283498;28;20123;-76
2023/10/27 06:45:10;;;;;;;16.53;12.20;;;;;;;9.50;100.00;98912.56;5283082;28;20048;-76
2023/10/27 06:47:41;;;;;;;22.37;15.53;;;;;;;9.52;100.00;98923.75;5283482;28;20029;-76
2023/10/27 06:50:13;;;;;;;15.93;12.83;;;;;;;9.55;100.00;98923.63;5282733;28;20055;-75
2023/10/27 06:52:44;;;;;;;14.60;12.63;;;;;;;9.58;100.00;98922.66;5283107;28;20159;-78
2023/10/27 06:55:16;;;;;;;14.77;11.33;;;;;;;9.60;100.00;98923.47;5283563;28;20460;-75
2023/10/27 06:57:47;;;;;;;12.90;10.33;;;;;;;9.55;100.00;98925.41;5283749;28;20039;-77
2023/10/27 07:00:18;;;;;;;13.67;9.80;;;;;;;9.54;100.00;98928.88;5283082;28;20044;-76
2023/10/27 07:02:50;;;;;;;14.03;9.17;;;;;;;9.56;100.00;98932.28;5285514;28;20033;-76
2023/10/27 07:05:21;;;;;;;12.67;9.73;;;;;;;9.57;100.00;98924.41;5283476;28;20048;-77
2023/10/27 07:07:53;;;;;;;11.43;9.53;;;;;;;9.62;100.00;98932.03;5283690;28;20468;-77
2023/10/27 07:10:25;;;;;;;16.43;9.90;;;;;;;9.63;100.00;98926.78;5283474;28;20028;-76
2023/10/27 07:12:57;;;;;;;14.80;10.60;;;;;;;9.62;100.00;98926.84;5281997;28;20033;-77
2023/10/27 07:15:29;;;;;;;13.50;11.20;;;;;;;9.64;100.00;98935.41;5282022;28;20031;-77
2023/10/27 07:18:00;;;;;;;17.38;15.32;;;;;;;9.71;100.00;98942.09;5283575;28;20119;-76
2023/10/27 07:20:31;;;;;;;19.53;17.27;;;;;;;9.73;100.00;98942.88;5283520;28;20165;-76
2023/10/27 07:23:03;;;;;;;15.27;13.17;;;;;;;9.71;100.00;98942.09;5265218;28;20107;-76
2023/10/27 07:25:34;;;;;;;10.73;9.07;;;;;;;9.70;100.00;98948.19;5282992;28;20138;-76
2023/10/27 07:28:06;;;;;;;11.60;9.47;;;;;;;9.76;100.00;98949.72;5281583;28;20037;-76
2023/10/27 07:30:37;;;;;;;11.20;10.00;;;;;;;9.75;100.00;98954.06;5281098;28;20472;-78
2023/10/27 07:33:10;;;;;;;9.77;8.77;;;;;;;9.82;100.00;98958.16;5282687;28;20506;-77
2023/10/27 07:35:42;;;;;;;11.60;7.72;;;;;;;9.73;100.00;98952.44;5282352;28;20036;-76
2023/10/27 07:38:13;;;;;;;10.13;7.07;;;;;;;9.75;100.00;98954.06;5283187;28;20410;-78
2023/10/27 07:40:45;;;;;;;6.77;6.07;;;;;;;9.70;100.00;98956.00;5282005;28;20036;-77
2023/10/27 07:43:18;;;;;;;7.20;6.30;;;;;;;9.73;100.00;98965.47;5282287;28;20060;-78
2023/10/27 07:45:49;;;;;;;10.73;8.00;;;;;;;9.78;100.00;98964.34;5282515;28;20082;-77
2023/10/27 07:48:21;;;;;;;10.40;9.13;;;;;;;9.75;100.00;98974.88;5283453;28;20028;-76
2023/10/27 07:50:56;;;;;;;11.85;10.65;;;;;;;9.71;100.00;98975.06;5279966;28;20039;-80
2023/10/27 07:53:28;;;;;;;12.27;10.00;;;;;;;9.73;100.00;98973.25;5289070;28;20114;-77
2023/10/27 07:55:59;;;;;;;10.97;8.73;;;;;;;9.85;100.00;98973.63;5285936;28;20116;-77
2023/10/27 07:58:31;;;;;;;12.83;9.37;;;;;;;9.82;100.00;98976.34;5282891;28;20064;-76
2023/10/27 08:01:05;;;;;;;9.87;8.07;;;;;;;9.83;100.00;98977.19;5281048;28;20048;-77
2023/10/27 08:03:38;;;;;;;9.95;8.95;;;;;;;9.80;100.00;98975.56;5282555;28;20033;-77
2023/10/27 08:06:09;;;;;;;9.02;8.05;;;;;;;9.79;100.00;98986.03;5281105;28;20021;-77
2023/10/27 08:08:41;;;;;;;11.90;7.77;;;;;;;9.71;100.00;98982.88;5282754;28;20040;-77
2023/10/27 08:11:19;;;;;;;9.37;7.80;;;;;;;9.78;100.00;98982.56;5280515;28;20463;-75
2023/10/27 08:13:50;;;;;;;9.77;8.75;;;;;;;9.74;100.00;98986.22;5280669;28;20032;-77
2023/10/27 08:16:22;;;;;;;11.33;7.93;;;;;;;9.78;100.00;98974.75;5282149;28;20462;-77
2023/10/27 08:18:53;;;;;;;9.33;7.93;;;;;;;9.84;100.00;98968.50;5282061;28;20032;-78
2023/10/27 08:21:25;;;;;;;9.40;8.00;;;;;;;9.88;100.00;98984.84;5278783;28;20118;-78
2023/10/27 08:23:57;;;;;;;9.73;8.23;;;;;;;9.86;100.00;98990.09;5261085;28;20021;-77
2023/10/27 08:26:28;;;;;;;8.83;7.70;;;;;;;9.90;100.00;98986.47;5270328;28;20033;-77
2023/10/27 08:29:00;;;;;;;8.97;8.07;;;;;;;9.86;100.00;98997.91;5279714;28;20112;-78
2023/10/27 08:31:31;;;;;;;11.03;8.47;;;;;;;9.93;100.00;98993.31;5280836;28;20043;-77
2023/10/27 08:34:04;;;;;;;9.87;8.40;;;;;;;9.99;100.00;99000.88;5282256;28;20021;-78
2023/10/27 08:36:35;;;;;;;9.07;8.00;;;;;;;10.01;100.00;99007.72;5277907;28;20062;-78
2023/10/27 08:39:06;;;;;;;9.03;7.77;;;;;;;10.09;100.00;99009.16;5281719;28;20170;-78
2023/10/27 08:41:38;;;;;;;8.43;7.63;;;;;;;10.08;100.00;99007.47;5282713;28;20486;-77
2023/10/27 08:44:10;;;;;;;8.00;6.53;;;;;;;10.03;100.00;99005.91;5284577;28;20063;-79
2023/10/27 08:46:42;;;;;;;7.53;6.20;;;;;;;10.06;100.00;99007.53;5285700;28;20046;-78
2023/10/27 08:49:13;;;;;;;7.47;6.38;;;;;;;10.02;100.00;99011.16;5286137;28;20066;-81
2023/10/27 08:51:46;;;;;;;7.00;6.30;;;;;;;9.98;100.00;99018.25;5281368;28;20029;-77
2023/10/27 08:54:17;;;;;;;7.05;6.35;;;;;;;9.97;100.00;99007.91;5288124;28;20111;-79
2023/10/27 08:56:49;;;;;;;7.40;6.67;;;;;;;10.06;100.00;99006.69;5285299;28;20566;-78
2023/10/27 08:59:21;;;;;;;7.57;6.77;;;;;;;10.07;100.00;99009.22;5280148;28;20132;-77
2023/10/27 09:01:55;;;;;;;9.25;7.80;;;;;;;10.09;100.00;99019.59;5281603;28;20062;-76
2023/10/27 09:04:26;;;;;;;7.80;6.95;;;;;;;10.10;100.00;99011.72;5283689;28;20032;-78
2023/10/27 09:06:58;;;;;;;10.53;7.67;;;;;;;10.16;100.00;99015.84;5284550;28;20059;-77
2023/10/27 09:09:31;;;;;;;14.03;12.03;;;;;;;10.13;100.00;99011.59;5285180;28;20100;-79
2023/10/27 09:12:02;;;;;;;;;;;;;;;10.32;100.00;99023.88;5284735;28;20032;-77
2023/10/27 09:14:34;;;;;;;11.15;9.60;;;;;;;10.27;100.00;99025.81;5285504;28;20282;-78
2023/10/27 09:17:06;;;;;;;10.97;8.57;;;;;;;10.26;100.00;99026.75;5285203;28;20154;-78
2023/10/27 09:19:39;;;;;;;9.32;8.32;;;;;;;10.33;100.00;99020.41;5284597;28;20032;-77
2023/10/27 09:22:15;;;;;;;10.73;9.00;;;;;;;10.48;100.00;99022.41;5284429;28;20484;-77
2023/10/27 09:24:47;;;;;;;9.52;8.52;;;;;;;10.39;100.00;99012.34;5284465;28;20051;-77
2023/10/27 09:27:26;;;;;;;10.83;7.90;;;;;;;10.41;100.00;99018.34;5282871;28;20037;-77
2023/10/27 09:29:57;;;;;;;8.70;7.63;;;;;;;10.42;100.00;99021.78;5284156;28;20024;-77
2023/10/27 09:32:29;;;;;;;10.00;7.77;;;;;;;10.38;100.00;99023.66;5282665;28;20040;-76
2023/10/27 09:35:13;;;;;;;10.17;7.37;;;;;;;10.51;100.00;99026.63;5282085;28;20692;-77
2023/10/27 09:37:49;;;;;;;9.52;7.93;;;;;;;10.45;100.00;99017.31;5284572;28;20039;-79
2023/10/27 09:40:20;;;;;;;9.13;7.47;;;;;;;10.59;100.00;99019.34;5284200;28;20052;-77
2023/10/27 09:42:54;;;;;;;10.03;7.87;;;;;;;10.68;100.00;99023.34;5284388;28;20054;-77
2023/10/27 09:45:28;;;;;;;9.15;7.93;;;;;;;10.71;100.00;99024.06;5280204;28;20040;-78
2023/10/27 09:48:04;;;;;;;9.02;8.10;;;;;;;10.85;100.00;99022.63;5284793;28;20471;-76
2023/10/27 09:50:37;;;;;;;8.68;7.72;;;;;;;10.90;100.00;99021.53;5283830;28;20025;-76
2023/10/27 09:53:09;;;;;;;9.65;8.02;;;;;;;11.11;100.00;99021.53;5283255;28;20039;-77
2023/10/27 09:55:42;;;;;;;8.70;7.43;;;;;;;11.13;100.00;99024.91;5283443;28;20481;-77
2023/10/27 09:58:14;;;;;;;12.13;8.32;;;;;;;11.33;100.00;99021.41;5282867;28;20039;-77
2023/10/27 10:00:46;;;;;;;9.57;8.30;;;;;;;11.49;100.00;99026.81;5282972;28;20033;-78
2023/10/27 10:03:17;;;;;;;9.90;8.38;;;;;;;11.46;100.00;99019.97;5284743;28;20035;-78
2023/10/27 10:06:08;;;;;;;9.37;8.33;;;;;;;11.54;100.00;99034.44;5281466;28;20522;-78
2023/10/27 10:08:40;;;;;;;9.98;8.65;;;;;;;11.50;100.00;99033.72;5284213;28;20259;-77
2023/10/27 10:11:18;;;;;;;10.68;9.15;;;;;;;11.35;100.00;99037.88;5286119;28;20044;-78
2023/10/27 10:13:49;;;;;;;11.13;9.35;;;;;;;11.18;100.00;99043.81;5289015;28;20459;-78
2023/10/27 10:16:22;;;;;;;12.43;10.23;;;;;;;11.09;100.00;99054.63;5283348;28;20147;-77
2023/10/27 10:18:55;;;;;;;;;;;;;;;11.16;100.00;99055.19;5284160;28;20029;-77
2023/10/27 10:21:37;;;;;;;11.65;9.98;;;;;;;10.83;100.00;99042.69;5282418;28;19920;-79
2023/10/27 10:24:09;;;;;;;10.88;9.45;;;;;;;10.86;100.00;99053.00;5283963;28;20559;-77
2023/10/27 10:27:04;;;;;;;12.57;10.75;;;;;;;10.85;100.00;99046.06;5283155;28;20108;-77
2023/10/27 10:29:36;;;;;;;12.32;11.02;;;;;;;10.80;100.00;99048.03;5283011;28;20356;-78
2023/10/27 10:32:43;;;;;;;12.90;11.53;;;;;;;10.80;100.00;99046.25;5283568;28;20047;-78
2023/10/27 10:35:27;;;;;;;13.30;11.88;;;;;;;10.75;100.00;99053.44;5217413;28;20305;-78
2023/10/27 10:38:24;;;;;;;14.63;11.77;;;;;;;10.72;100.00;99050.94;5277769;28;20040;-77
2023/10/27 10:40:57;;;;;;;13.18;10.63;;;;;;;10.66;100.00;99051.19;5263271;28;20051;-78
2023/10/27 10:43:39;;;;;;;15.27;12.45;;;;;;;10.65;100.00;99047.75;5266037;28;20033;-76
2023/10/27 10:46:12;;;;;;;15.45;13.63;;;;;;;10.58;100.00;99049.75;5273007;28;20035;-79
2023/10/27 10:48:46;;;;;;;19.58;14.18;;;;;;;10.57;100.00;99042.84;5281936;28;20036;-78
2023/10/27 10:51:26;;;;;;;19.02;15.02;;;;;;;10.62;100.00;99044.44;5285160;28;20043;-78
2023/10/27 10:53:57;;;;;;;21.00;15.25;;;;;;;10.67;100.00;99043.31;5282173;28;20041;-77
2023/10/27 10:56:28;;;;;;;16.40;14.67;;;;;;;10.74;100.00;99049.16;5282846;28;20078;-77
2023/10/27 10:59:03;;;;;;;16.97;14.27;;;;;;;10.80;100.00;99041.06;5284051;28;20036;-78
2023/10/27 11:01:34;;;;;;;18.45;15.05;;;;;;;10.85;100.00;99046.06;5262971;28;20528;-78
2023/10/27 11:04:06;;;;;;;17.57;13.77;;;;;;;10.97;100.00;99039.53;5263253;28;20108;-77
2023/10/27 11:06:37;;;;;;;18.20;13.37;;;;;;;11.09;100.00;99045.06;5263298;28;20041;-76
2023/10/27 11:09:08;;;;;;;15.13;13.10;;;;;;;11.19;100.00;99044.63;5263090;28;20039;-77
2023/10/27 11:11:40;;;;;;;13.93;10.77;;;;;;;11.21;100.00;99043.69;5263468;28;20516;-77
2023/10/27 11:14:11;;;;;;;15.70;11.23;;;;;;;11.29;100.00;99044.19;5262940;28;20448;-78
2023/10/27 11:16:43;;;;;;;13.63;10.67;;;;;;;11.47;100.00;99037.31;5261748;28;20099;-77
2023/10/27 11:19:18;;;;;;;12.77;8.77;;;;;;;11.52;100.00;99031.88;5263479;28;20116;-78
2023/10/27 11:21:53;;;;;;;15.32;9.20;;;;;;;11.62;100.00;99043.63;5261862;28;20063;-77
2023/10/27 11:24:25;;;;;;;10.02;7.50;;;;;;;11.71;100.00;99044.97;5263785;28;20029;-77
2023/10/27 11:26:56;;;;;;;10.40;6.73;;;;;;;11.72;100.00;99040.56;5263379;28;20036;-76
2023/10/27 11:29:27;;;;;;;12.97;7.80;;;;;;;11.85;100.00;99044.34;5264614;28;20083;-76
2023/10/27 11:32:14;;;;;;;12.00;7.37;;;;;;;11.81;100.00;99042.78;5269747;28;20364;-78
2023/10/27 11:34:54;;;;;;;10.93;6.82;;;;;;;11.72;100.00;99051.00;5269666;28;20056;-78
2023/10/27 11:37:26;;;;;;;9.63;6.40;;;;;;;11.79;100.00;99047.22;5267918;28;20036;-77
2023/10/27 11:40:12;;;;;;;8.67;6.33;;;;;;;11.83;100.00;99043.53;5263062;28;20112;-77
2023/10/27 11:42:43;;;;;;;8.20;6.20;;;;;;;11.79;100.00;99050.69;5262252;28;20028;-78